Time,TemperatureF,DewpointF,PressureIn,WindDirection,WindDirectionDegrees,WindSpeedMPH,WindSpeedGustMPH,Humidity,HourlyPrecipIn,Conditions,Clouds,dailyrainin,SoftwareType,DateUTC
2013-08-28 00:04:00,69.6,60.2,29.56,North,0,0.0,0.0,72,0.00,,---,0.00,VWS V13.01,2013-08-28 04:04:00,
2013-08-28 00:09:00,69.3,59.5,29.56,North,0,0.0,0.0,71,0.00,,---,0.00,VWS V13.01,2013-08-28 04:09:00,
2013-08-28 00:19:00,69.1,59.7,29.56,North,0,0.0,0.0,72,0.00,,---,0.00,VWS V13.01,2013-08-28 04:19:00,
2013-08-28 00:24:00,69.1,60.1,29.56,North,0,0.0,0.0,73,0.00,,---,0.00,VWS V13.01,2013-08-28 04:24:00,
2013-08-28 00:34:00,69.1,60.1,29.56,North,0,0.0,0.0,73,0.00,,---,0.00,VWS V13.01,2013-08-28 04:34:00,
2013-08-28 00:39:00,68.9,60.3,29.56,North,0,0.0,0.0,74,0.00,,---,0.00,VWS V13.01,2013-08-28 04:39:00,
2013-08-28 00:44:00,69.1,60.5,29.56,North,0,0.0,0.0,74,0.00,,---,0.00,VWS V13.01,2013-08-28 04:44:00,
2013-08-28 00:49:00,69.3,60.6,29.56,North,0,0.0,0.0,74,0.00,,---,0.00,VWS V13.01,2013-08-28 04:49:00,
2013-08-28 00:54:00,69.3,60.6,29.56,North,0,0.0,0.0,74,0.00,,---,0.00,VWS V13.01,2013-08-28 04:54:00,
2013-08-28 00:59:00,69.3,60.6,29.56,North,0,0.0,0.0,74,0.00,,---,0.00,VWS V13.01,2013-08-28 04:59:00,
2013-08-28 01:04:00,69.3,60.2,29.56,North,0,0.0,0.0,73,0.00,,---,0.00,VWS V13.01,2013-08-28 05:04:00,
2013-08-28 01:09:00,69.1,60.1,29.56,North,0,0.0,0.0,73,0.00,,---,0.00,VWS V13.01,2013-08-28 05:09:00,
2013-08-28 01:14:00,68.9,59.5,29.53,North,0,0.0,0.0,72,0.00,,---,0.00,VWS V13.01,2013-08-28 05:14:00,
2013-08-28 01:19:00,68.9,59.5,29.53,North,0,0.0,0.0,72,0.00,,---,0.00,VWS V13.01,2013-08-28 05:19:00,
2013-08-28 01:24:00,68.9,59.5,29.53,North,0,0.0,0.0,72,0.00,,---,0.00,VWS V13.01,2013-08-28 05:24:00,
2013-08-28 01:29:00,68.9,59.5,29.56,North,0,0.0,0.0,72,0.00,,---,0.00,VWS V13.01,2013-08-28 05:29:00,
2013-08-28 01:34:00,68.7,59.3,29.56,North,0,0.0,0.0,72,0.00,,---,0.00,VWS V13.01,2013-08-28 05:34:00,
2013-08-28 01:39:00,68.5,59.2,29.56,North,0,0.0,0.0,72,0.00,,---,0.00,VWS V13.01,2013-08-28 05:39:00,
2013-08-28 01:44:00,68.5,59.2,29.56,North,0,0.0,0.0,72,0.00,,---,0.00,VWS V13.01,2013-08-28 05:44:00,
2013-08-28 01:49:00,68.5,59.2,29.56,North,0,0.0,0.0,72,0.00,,---,0.00,VWS V13.01,2013-08-28 05:49:00,
2013-08-28 01:54:00,68.4,58.6,29.56,North,0,0.0,0.0,71,0.00,,---,0.00,VWS V13.01,2013-08-28 05:54:00,
2013-08-28 01:59:00,68.2,58.4,29.53,North,0,0.0,0.0,71,0.00,,---,0.00,VWS V13.01,2013-08-28 05:59:00,
2013-08-28 02:04:00,68.0,58.3,29.53,North,0,0.0,0.0,71,0.00,,---,0.00,VWS V13.01,2013-08-28 06:04:00,
2013-08-28 02:09:00,68.0,58.7,29.53,North,0,0.0,0.0,72,0.00,,---,0.00,VWS V13.01,2013-08-28 06:09:00,
2013-08-28 02:14:00,68.0,58.7,29.53,North,0,0.0,0.0,72,0.00,,---,0.00,VWS V13.01,2013-08-28 06:14:00,
2013-08-28 02:24:00,67.6,58.3,29.53,North,0,0.0,0.0,72,0.00,,---,0.00,VWS V13.01,2013-08-28 06:24:00,
2013-08-28 02:29:00,67.6,58.3,29.53,North,0,0.0,0.0,72,0.00,,---,0.00,VWS V13.01,2013-08-28 06:29:00,
2013-08-28 02:34:00,67.6,58.3,29.53,North,0,0.0,0.0,72,0.00,,---,0.00,VWS V13.01,2013-08-28 06:34:00,
2013-08-28 02:39:00,67.6,58.7,29.53,North,0,0.0,0.0,73,0.00,,---,0.00,VWS V13.01,2013-08-28 06:39:00,
2013-08-28 02:49:00,67.5,58.1,29.53,North,0,0.0,0.0,72,0.00,,---,0.00,VWS V13.01,2013-08-28 06:49:00,
2013-08-28 02:54:00,67.5,58.1,29.53,North,0,0.0,0.0,72,0.00,,---,0.00,VWS V13.01,2013-08-28 06:54:00,
2013-08-28 02:59:00,67.3,58.0,29.53,North,0,0.0,0.0,72,0.00,,---,0.00,VWS V13.01,2013-08-28 06:59:00,
2013-08-28 03:04:00,67.1,58.2,29.53,North,0,0.0,0.0,73,0.00,,---,0.00,VWS V13.01,2013-08-28 07:04:00,
2013-08-28 03:09:00,67.1,58.2,29.53,North,0,0.0,0.0,73,0.00,,---,0.00,VWS V13.01,2013-08-28 07:09:00,
2013-08-28 03:14:00,66.9,58.0,29.53,North,0,0.0,0.0,73,0.00,,---,0.00,VWS V13.01,2013-08-28 07:14:00,
2013-08-28 03:19:00,66.9,58.0,29.53,North,0,0.0,0.0,73,0.00,,---,0.00,VWS V13.01,2013-08-28 07:19:00,
2013-08-28 03:24:00,67.1,58.2,29.53,North,0,0.0,0.0,73,0.00,,---,0.00,VWS V13.01,2013-08-28 07:24:00,
2013-08-28 03:29:00,66.9,58.0,29.53,North,0,0.0,0.0,73,0.00,,---,0.00,VWS V13.01,2013-08-28 07:29:00,
2013-08-28 03:34:00,66.9,58.0,29.53,North,0,0.0,0.0,73,0.00,,---,0.00,VWS V13.01,2013-08-28 07:34:00,
2013-08-28 03:39:00,66.7,57.8,29.53,North,0,0.0,0.0,73,0.00,,---,0.00,VWS V13.01,2013-08-28 07:39:00,
2013-08-28 03:44:00,66.7,58.2,29.53,North,0,0.0,0.0,74,0.00,,---,0.00,VWS V13.01,2013-08-28 07:44:00,
2013-08-28 03:49:00,66.6,58.0,29.53,North,0,0.0,0.0,74,0.00,,---,0.00,VWS V13.01,2013-08-28 07:49:00,
2013-08-28 03:54:00,66.4,57.8,29.53,North,0,0.0,0.0,74,0.00,,---,0.00,VWS V13.01,2013-08-28 07:54:00,
2013-08-28 03:59:00,66.4,58.2,29.53,North,0,0.0,0.0,75,0.00,,---,0.00,VWS V13.01,2013-08-28 07:59:00,
2013-08-28 04:04:00,66.4,58.2,29.53,North,0,0.0,0.0,75,0.00,,---,0.00,VWS V13.01,2013-08-28 08:04:00,
2013-08-28 04:14:00,66.2,58.0,29.53,North,0,0.0,0.0,75,0.00,,---,0.00,VWS V13.01,2013-08-28 08:14:00,
2013-08-28 04:19:00,66.4,58.2,29.53,North,0,0.0,0.0,75,0.00,,---,0.00,VWS V13.01,2013-08-28 08:19:00,
2013-08-28 04:24:00,66.4,58.2,29.53,North,0,0.0,0.0,75,0.00,,---,0.00,VWS V13.01,2013-08-28 08:24:00,
2013-08-28 04:29:00,66.4,58.2,29.53,North,0,0.0,0.0,75,0.00,,---,0.00,VWS V13.01,2013-08-28 08:29:00,
2013-08-28 04:34:00,66.2,57.7,29.53,North,0,0.0,0.0,74,0.00,,---,0.00,VWS V13.01,2013-08-28 08:34:00,
2013-08-28 04:44:00,66.0,57.9,29.53,North,0,0.0,0.0,75,0.00,,---,0.00,VWS V13.01,2013-08-28 08:44:00,
2013-08-28 04:49:00,66.0,57.9,29.53,North,0,0.0,0.0,75,0.00,,---,0.00,VWS V13.01,2013-08-28 08:49:00,
2013-08-28 04:54:00,66.0,57.9,29.53,North,0,0.0,0.0,75,0.00,,---,0.00,VWS V13.01,2013-08-28 08:54:00,
2013-08-28 04:59:00,66.0,57.9,29.53,North,0,0.0,0.0,75,0.00,,---,0.00,VWS V13.01,2013-08-28 08:59:00,
2013-08-28 05:04:00,66.2,58.0,29.53,North,0,0.0,0.0,75,0.00,,---,0.00,VWS V13.01,2013-08-28 09:04:00,
2013-08-28 05:09:00,66.0,57.9,29.53,North,0,0.0,0.0,75,0.00,,---,0.00,VWS V13.01,2013-08-28 09:09:00,
2013-08-28 05:19:00,65.8,57.7,29.50,North,0,0.0,0.0,75,0.00,,---,0.00,VWS V13.01,2013-08-28 09:19:00,
2013-08-28 05:24:00,65.8,57.7,29.50,North,0,0.0,0.0,75,0.00,,---,0.00,VWS V13.01,2013-08-28 09:24:00,
2013-08-28 05:34:00,66.0,58.2,29.53,North,0,0.0,0.0,76,0.00,,---,0.00,VWS V13.01,2013-08-28 09:34:00,
2013-08-28 05:39:00,66.0,57.9,29.53,North,0,0.0,0.0,75,0.00,,---,0.00,VWS V13.01,2013-08-28 09:39:00,
2013-08-28 05:44:00,66.0,57.9,29.53,North,0,0.0,0.0,75,0.00,,---,0.00,VWS V13.01,2013-08-28 09:44:00,
2013-08-28 05:49:00,66.0,57.9,29.53,North,0,0.0,0.0,75,0.00,,---,0.00,VWS V13.01,2013-08-28 09:49:00,
2013-08-28 05:54:00,66.0,57.9,29.53,North,0,0.0,0.0,75,0.00,,---,0.00,VWS V13.01,2013-08-28 09:54:00,
2013-08-28 05:59:00,65.8,57.7,29.53,North,0,0.0,0.0,75,0.00,,---,0.00,VWS V13.01,2013-08-28 09:59:00,
2013-08-28 06:04:00,65.5,57.0,29.53,North,0,0.0,0.0,74,0.00,,---,0.00,VWS V13.01,2013-08-28 10:04:00,
2013-08-28 06:09:00,65.5,57.4,29.53,North,0,0.0,0.0,75,0.00,,---,0.00,VWS V13.01,2013-08-28 10:09:00,
2013-08-28 06:14:00,65.5,57.4,29.53,North,0,0.0,0.0,75,0.00,,---,0.00,VWS V13.01,2013-08-28 10:14:00,
2013-08-28 06:19:00,65.7,57.5,29.53,North,0,0.0,0.0,75,0.00,,---,0.00,VWS V13.01,2013-08-28 10:19:00,
2013-08-28 06:24:00,65.7,57.5,29.53,North,0,0.0,0.0,75,0.00,,---,0.00,VWS V13.01,2013-08-28 10:24:00,
2013-08-28 06:29:00,65.7,57.5,29.53,North,0,0.0,0.0,75,0.00,,---,0.00,VWS V13.01,2013-08-28 10:29:00,
2013-08-28 06:34:00,65.7,57.5,29.53,North,0,0.0,0.0,75,0.00,,---,0.00,VWS V13.01,2013-08-28 10:34:00,
2013-08-28 06:39:00,65.7,57.5,29.53,North,0,0.0,0.0,75,0.00,,---,0.00,VWS V13.01,2013-08-28 10:39:00,
2013-08-28 06:44:00,65.8,57.7,29.53,North,0,0.0,0.0,75,0.00,,---,0.00,VWS V13.01,2013-08-28 10:44:00,
2013-08-28 06:49:00,65.8,57.7,29.53,North,0,0.0,0.0,75,0.00,,---,0.00,VWS V13.01,2013-08-28 10:49:00,
2013-08-28 06:54:00,66.0,58.2,29.53,North,0,0.0,0.0,76,0.00,,---,0.00,VWS V13.01,2013-08-28 10:54:00,
2013-08-28 06:59:00,66.2,58.4,29.53,North,0,0.0,0.0,76,0.00,,---,0.00,VWS V13.01,2013-08-28 10:59:00,
2013-08-28 07:04:00,68.0,60.2,29.53,North,0,0.0,0.0,76,0.00,,---,0.00,VWS V13.01,2013-08-28 11:04:00,
2013-08-28 07:09:00,68.2,59.2,29.53,North,0,0.0,0.0,73,0.00,,---,0.00,VWS V13.01,2013-08-28 11:09:00,
2013-08-28 07:14:00,68.4,56.6,29.53,North,0,0.0,0.0,66,0.00,,---,0.00,VWS V13.01,2013-08-28 11:14:00,
2013-08-28 07:24:00,68.5,57.6,29.53,North,0,0.0,0.0,68,0.00,,---,0.00,VWS V13.01,2013-08-28 11:24:00,
2013-08-28 07:29:00,68.7,58.2,29.53,North,0,0.0,0.0,69,0.00,,---,0.00,VWS V13.01,2013-08-28 11:29:00,
2013-08-28 07:34:00,68.9,59.1,29.53,North,0,0.0,0.0,71,0.00,,---,0.00,VWS V13.01,2013-08-28 11:34:00,
2013-08-28 07:39:00,69.4,59.6,29.53,North,0,0.0,0.0,71,0.00,,---,0.00,VWS V13.01,2013-08-28 11:39:00,
2013-08-28 07:44:00,69.6,57.3,29.53,North,0,0.0,0.0,65,0.00,,---,0.00,VWS V13.01,2013-08-28 11:44:00,
2013-08-28 07:49:00,70.2,57.9,29.53,North,0,0.0,0.0,65,0.00,,---,0.00,VWS V13.01,2013-08-28 11:49:00,
2013-08-28 07:54:00,69.8,56.2,29.53,North,0,0.0,0.0,62,0.00,,---,0.00,VWS V13.01,2013-08-28 11:54:00,
2013-08-28 07:59:00,70.2,58.3,29.53,North,0,0.0,0.0,66,0.00,,---,0.00,VWS V13.01,2013-08-28 11:59:00,
2013-08-28 08:04:00,70.7,58.8,29.53,North,0,0.0,0.0,66,0.00,,---,0.00,VWS V13.01,2013-08-28 12:04:00,
2013-08-28 08:09:00,70.9,56.8,29.53,North,0,0.0,0.0,61,0.00,,---,0.00,VWS V13.01,2013-08-28 12:09:00,
2013-08-28 08:14:00,71.2,56.7,29.53,North,0,0.0,0.0,60,0.00,,---,0.00,VWS V13.01,2013-08-28 12:14:00,
2013-08-28 08:19:00,71.8,56.7,29.53,North,0,0.0,0.0,59,0.00,,---,0.00,VWS V13.01,2013-08-28 12:19:00,
2013-08-28 08:24:00,72.1,55.6,29.53,North,0,0.0,0.0,56,0.00,,---,0.00,VWS V13.01,2013-08-28 12:24:00,
2013-08-28 08:29:00,72.1,54.6,29.53,North,0,0.0,0.0,54,0.00,,---,0.00,VWS V13.01,2013-08-28 12:29:00,
2013-08-28 08:34:00,72.5,53.9,29.53,North,0,0.0,0.0,52,0.00,,---,0.00,VWS V13.01,2013-08-28 12:34:00,
2013-08-28 08:39:00,73.0,52.8,29.53,North,0,0.0,0.0,49,0.00,,---,0.00,VWS V13.01,2013-08-28 12:39:00,
2013-08-28 08:44:00,73.6,52.1,29.53,North,0,0.0,0.0,47,0.00,,---,0.00,VWS V13.01,2013-08-28 12:44:00,
2013-08-28 08:49:00,73.9,52.5,29.53,North,0,0.0,0.0,47,0.00,,---,0.00,VWS V13.01,2013-08-28 12:49:00,
2013-08-28 08:54:00,74.3,51.6,29.53,North,0,0.0,0.0,45,0.00,,---,0.00,VWS V13.01,2013-08-28 12:54:00,
2013-08-28 08:59:00,74.8,51.5,29.53,North,0,0.0,0.0,44,0.00,,---,0.00,VWS V13.01,2013-08-28 12:59:00,
2013-08-28 09:04:00,75.6,50.9,29.53,North,0,0.0,0.0,42,0.00,,---,0.00,VWS V13.01,2013-08-28 13:04:00,
2013-08-28 09:09:00,75.6,50.9,29.53,North,0,0.0,0.0,42,0.00,,---,0.00,VWS V13.01,2013-08-28 13:09:00,
2013-08-28 09:14:00,75.7,50.4,29.53,North,0,0.0,0.0,41,0.00,,---,0.00,VWS V13.01,2013-08-28 13:14:00,
2013-08-28 09:19:00,76.1,50.0,29.53,North,0,0.0,0.0,40,0.00,,---,0.00,VWS V13.01,2013-08-28 13:19:00,
2013-08-28 09:24:00,76.6,49.8,29.53,North,0,0.0,0.0,39,0.00,,---,0.00,VWS V13.01,2013-08-28 13:24:00,
2013-08-28 09:29:00,76.8,48.6,29.53,North,0,0.0,0.0,37,0.00,,---,0.00,VWS V13.01,2013-08-28 13:29:00,
2013-08-28 09:34:00,77.0,52.2,29.53,North,0,0.0,0.0,42,0.00,,---,0.00,VWS V13.01,2013-08-28 13:34:00,
2013-08-28 09:39:00,77.4,48.3,29.53,North,0,0.0,0.0,36,0.00,,---,0.00,VWS V13.01,2013-08-28 13:39:00,
2013-08-28 09:44:00,77.9,49.6,29.53,North,0,0.0,0.0,37,0.00,,---,0.00,VWS V13.01,2013-08-28 13:44:00,
2013-08-28 09:49:00,77.9,51.0,29.53,North,0,0.0,0.0,39,0.00,,---,0.00,VWS V13.01,2013-08-28 13:49:00,
2013-08-28 09:54:00,78.6,53.0,29.53,North,0,0.0,0.0,41,0.00,,---,0.00,VWS V13.01,2013-08-28 13:54:00,
2013-08-28 09:59:00,78.4,50.8,29.53,North,0,0.0,0.0,38,0.00,,---,0.00,VWS V13.01,2013-08-28 13:59:00,
2013-08-28 10:09:00,79.0,46.6,29.53,North,0,0.0,0.0,32,0.00,,---,0.00,VWS V13.01,2013-08-28 14:09:00,
2013-08-28 10:14:00,79.2,46.8,29.53,North,0,0.0,0.0,32,0.00,,---,0.00,VWS V13.01,2013-08-28 14:14:00,
2013-08-28 10:19:00,79.7,46.4,29.53,North,0,0.0,0.0,31,0.00,,---,0.00,VWS V13.01,2013-08-28 14:19:00,
2013-08-28 10:24:00,80.2,48.5,29.53,North,0,0.0,0.0,33,0.00,,---,0.00,VWS V13.01,2013-08-28 14:24:00,
2013-08-28 10:29:00,80.8,49.0,29.53,North,0,0.0,0.0,33,0.00,,---,0.00,VWS V13.01,2013-08-28 14:29:00,
2013-08-28 10:34:00,81.0,46.6,29.53,North,0,0.0,0.0,30,0.00,,---,0.00,VWS V13.01,2013-08-28 14:34:00,
2013-08-28 10:39:00,81.3,50.3,29.53,North,0,0.0,0.0,34,0.00,,---,0.00,VWS V13.01,2013-08-28 14:39:00,
2013-08-28 10:44:00,81.1,47.7,29.53,North,0,0.0,0.0,31,0.00,,---,0.00,VWS V13.01,2013-08-28 14:44:00,
2013-08-28 10:49:00,81.1,46.8,29.53,North,0,0.0,0.0,30,0.00,,---,0.00,VWS V13.01,2013-08-28 14:49:00,
2013-08-28 10:59:00,82.0,47.6,29.53,North,0,0.0,0.0,30,0.00,,---,0.00,VWS V13.01,2013-08-28 14:59:00,
2013-08-28 11:04:00,81.9,49.1,29.53,North,0,0.0,0.0,32,0.00,,---,0.00,VWS V13.01,2013-08-28 15:04:00,
2013-08-28 11:09:00,81.7,47.3,29.53,North,0,0.0,0.0,30,0.00,,---,0.00,VWS V13.01,2013-08-28 15:09:00,
2013-08-28 11:14:00,82.2,49.5,29.53,North,0,0.0,0.0,32,0.00,,---,0.00,VWS V13.01,2013-08-28 15:14:00,
2013-08-28 11:19:00,82.9,48.3,29.53,North,0,0.0,0.0,30,0.00,,---,0.00,VWS V13.01,2013-08-28 15:19:00,
2013-08-28 11:24:00,82.4,44.1,29.53,North,0,0.0,0.0,26,0.00,,---,0.00,VWS V13.01,2013-08-28 15:24:00,
2013-08-28 11:29:00,82.0,46.7,29.53,North,0,0.0,0.0,29,0.00,,---,0.00,VWS V13.01,2013-08-28 15:29:00,
2013-08-28 11:34:00,82.6,47.1,29.53,North,0,0.0,0.0,29,0.00,,---,0.00,VWS V13.01,2013-08-28 15:34:00,
2013-08-28 11:39:00,83.3,44.9,29.53,North,0,0.0,0.0,26,0.00,,---,0.00,VWS V13.01,2013-08-28 15:39:00,
2013-08-28 11:44:00,83.7,43.1,29.53,North,0,0.0,0.0,24,0.00,,---,0.00,VWS V13.01,2013-08-28 15:44:00,
2013-08-28 11:49:00,84.0,45.5,29.53,North,0,0.0,0.0,26,0.00,,---,0.00,VWS V13.01,2013-08-28 15:49:00,
2013-08-28 11:54:00,84.0,43.4,29.53,North,0,0.0,0.0,24,0.00,,---,0.00,VWS V13.01,2013-08-28 15:54:00,
2013-08-28 11:59:00,83.7,45.2,29.53,North,0,0.0,0.0,26,0.00,,---,0.00,VWS V13.01,2013-08-28 15:59:00,
2013-08-28 12:04:00,84.0,43.4,29.53,North,0,0.0,0.0,24,0.00,,---,0.00,VWS V13.01,2013-08-28 16:04:00,
2013-08-28 12:09:00,84.4,44.8,29.53,North,0,0.0,0.0,25,0.00,,---,0.00,VWS V13.01,2013-08-28 16:09:00,
2013-08-28 12:14:00,85.1,45.4,29.53,North,0,0.0,0.0,25,0.00,,---,0.00,VWS V13.01,2013-08-28 16:14:00,
2013-08-28 12:19:00,85.1,44.3,29.53,North,0,0.0,0.0,24,0.00,,---,0.00,VWS V13.01,2013-08-28 16:19:00,
2013-08-28 12:24:00,85.1,46.4,29.53,North,0,0.0,0.0,26,0.00,,---,0.00,VWS V13.01,2013-08-28 16:24:00,
2013-08-28 12:29:00,85.5,43.5,29.53,North,0,0.0,0.0,23,0.00,,---,0.00,VWS V13.01,2013-08-28 16:29:00,
2013-08-28 12:34:00,85.5,43.5,29.53,North,0,0.0,0.0,23,0.00,,---,0.00,VWS V13.01,2013-08-28 16:34:00,
2013-08-28 12:39:00,85.6,42.5,29.53,North,0,0.0,0.0,22,0.00,,---,0.00,VWS V13.01,2013-08-28 16:39:00,
2013-08-28 12:44:00,85.8,41.4,29.50,North,0,0.0,0.0,21,0.00,,---,0.00,VWS V13.01,2013-08-28 16:44:00,
2013-08-28 12:49:00,85.6,42.5,29.50,North,0,0.0,0.0,22,0.00,,---,0.00,VWS V13.01,2013-08-28 16:49:00,
2013-08-28 12:54:00,85.3,44.4,29.50,North,0,0.0,0.0,24,0.00,,---,0.00,VWS V13.01,2013-08-28 16:54:00,
2013-08-28 12:59:00,84.4,42.6,29.50,North,0,0.0,0.0,23,0.00,,---,0.00,VWS V13.01,2013-08-28 16:59:00,
2013-08-28 13:09:00,84.6,43.8,29.50,North,0,0.0,0.0,24,0.00,,---,0.00,VWS V13.01,2013-08-28 17:09:00,
2013-08-28 13:14:00,83.7,46.2,29.50,North,0,0.0,0.0,27,0.00,,---,0.00,VWS V13.01,2013-08-28 17:14:00,
2013-08-28 13:19:00,83.3,46.8,29.50,North,0,0.0,0.0,28,0.00,,---,0.00,VWS V13.01,2013-08-28 17:19:00,
2013-08-28 13:24:00,83.3,47.8,29.50,North,0,0.0,0.0,29,0.00,,---,0.00,VWS V13.01,2013-08-28 17:24:00,
2013-08-28 13:29:00,82.8,48.2,29.50,North,0,0.0,0.0,30,0.00,,---,0.00,VWS V13.01,2013-08-28 17:29:00,
2013-08-28 13:34:00,82.8,49.1,29.50,North,0,0.0,0.0,31,0.00,,---,0.00,VWS V13.01,2013-08-28 17:34:00,
2013-08-28 13:39:00,83.1,47.6,29.50,North,0,0.0,0.0,29,0.00,,---,0.00,VWS V13.01,2013-08-28 17:39:00,
2013-08-28 13:44:00,84.4,48.7,29.50,North,0,0.0,0.0,29,0.00,,---,0.00,VWS V13.01,2013-08-28 17:44:00,
2013-08-28 13:49:00,85.3,46.5,29.50,North,0,0.0,0.0,26,0.00,,---,0.00,VWS V13.01,2013-08-28 17:49:00,
2013-08-28 13:54:00,85.6,44.7,29.50,North,0,0.0,0.0,24,0.00,,---,0.00,VWS V13.01,2013-08-28 17:54:00,
2013-08-28 13:59:00,85.1,44.3,29.50,North,0,0.0,0.0,24,0.00,,---,0.00,VWS V13.01,2013-08-28 17:59:00,
2013-08-28 14:04:00,85.5,47.7,29.50,North,0,0.0,0.0,27,0.00,,---,0.00,VWS V13.01,2013-08-28 18:04:00,
2013-08-28 14:09:00,86.4,45.3,29.50,North,0,0.0,0.0,24,0.00,,---,0.00,VWS V13.01,2013-08-28 18:09:00,
2013-08-28 14:14:00,87.6,44.1,29.50,North,0,0.0,0.0,22,0.00,,---,0.00,VWS V13.01,2013-08-28 18:14:00,
2013-08-28 14:19:00,88.3,42.2,29.50,North,0,0.0,0.0,20,0.00,,---,0.00,VWS V13.01,2013-08-28 18:19:00,
2013-08-28 14:24:00,87.3,43.8,29.50,North,0,0.0,0.0,22,0.00,,---,0.00,VWS V13.01,2013-08-28 18:24:00,
2013-08-28 14:29:00,87.8,41.8,29.50,North,0,0.0,0.0,20,0.00,,---,0.00,VWS V13.01,2013-08-28 18:29:00,
2013-08-28 14:34:00,88.2,42.1,29.50,North,0,0.0,0.0,20,0.00,,---,0.00,VWS V13.01,2013-08-28 18:34:00,
2013-08-28 14:39:00,87.4,40.2,29.50,North,0,0.0,0.0,19,0.00,,---,0.00,VWS V13.01,2013-08-28 18:39:00,
2013-08-28 14:44:00,86.5,40.8,29.50,North,0,0.0,0.0,20,0.00,,---,0.00,VWS V13.01,2013-08-28 18:44:00,
2013-08-28 14:54:00,86.5,40.8,29.50,North,0,0.0,0.0,20,0.00,,---,0.00,VWS V13.01,2013-08-28 18:54:00,
2013-08-28 14:59:00,85.8,40.2,29.50,North,0,0.0,0.0,20,0.00,,---,0.00,VWS V13.01,2013-08-28 18:59:00,
2013-08-28 15:04:00,85.3,39.7,29.50,North,0,0.0,0.0,20,0.00,,---,0.00,VWS V13.01,2013-08-28 19:04:00,
2013-08-28 15:09:00,86.4,39.3,29.50,North,0,0.0,0.0,19,0.00,,---,0.00,VWS V13.01,2013-08-28 19:09:00,
2013-08-28 15:14:00,86.9,39.7,29.50,North,0,0.0,0.0,19,0.00,,---,0.00,VWS V13.01,2013-08-28 19:14:00,
2013-08-28 15:19:00,87.1,39.9,29.50,North,0,0.0,0.0,19,0.00,,---,0.00,VWS V13.01,2013-08-28 19:19:00,
2013-08-28 15:24:00,86.5,39.4,29.50,North,0,0.0,0.0,19,0.00,,---,0.00,VWS V13.01,2013-08-28 19:24:00,
2013-08-28 15:29:00,85.8,40.2,29.50,North,0,0.0,0.0,20,0.00,,---,0.00,VWS V13.01,2013-08-28 19:29:00,
2013-08-28 15:34:00,85.1,39.6,29.50,North,0,0.0,0.0,20,0.00,,---,0.00,VWS V13.01,2013-08-28 19:34:00,
2013-08-28 15:39:00,84.4,40.2,29.50,North,0,0.0,0.0,21,0.00,,---,0.00,VWS V13.01,2013-08-28 19:39:00,
2013-08-28 15:44:00,83.8,43.2,29.50,North,0,0.0,0.0,24,0.00,,---,0.00,VWS V13.01,2013-08-28 19:44:00,
2013-08-28 15:49:00,83.1,43.7,29.50,North,0,0.0,0.0,25,0.00,,---,0.00,VWS V13.01,2013-08-28 19:49:00,
2013-08-28 15:54:00,82.9,46.5,29.50,North,0,0.0,0.0,28,0.00,,---,0.00,VWS V13.01,2013-08-28 19:54:00,
2013-08-28 15:59:00,82.6,46.2,29.50,North,0,0.0,0.0,28,0.00,,---,0.00,VWS V13.01,2013-08-28 19:59:00,
2013-08-28 16:04:00,82.4,47.0,29.50,North,0,0.0,0.0,29,0.00,,---,0.00,VWS V13.01,2013-08-28 20:04:00,
2013-08-28 16:09:00,82.2,47.7,29.50,North,0,0.0,0.0,30,0.00,,---,0.00,VWS V13.01,2013-08-28 20:09:00,
2013-08-28 16:19:00,81.0,48.4,29.47,North,0,0.0,0.0,32,0.00,,---,0.00,VWS V13.01,2013-08-28 20:19:00,
2013-08-28 16:24:00,80.4,47.9,29.47,North,0,0.0,0.0,32,0.00,,---,0.00,VWS V13.01,2013-08-28 20:24:00,
2013-08-28 16:29:00,79.9,48.2,29.50,North,0,0.0,0.0,33,0.00,,---,0.00,VWS V13.01,2013-08-28 20:29:00,
2013-08-28 16:34:00,79.5,47.1,29.50,North,0,0.0,0.0,32,0.00,,---,0.00,VWS V13.01,2013-08-28 20:34:00,
2013-08-28 16:39:00,79.3,47.0,29.50,North,0,0.0,0.0,32,0.00,,---,0.00,VWS V13.01,2013-08-28 20:39:00,
2013-08-28 16:44:00,79.2,46.8,29.50,North,0,0.0,0.0,32,0.00,,---,0.00,VWS V13.01,2013-08-28 20:44:00,
2013-08-28 16:49:00,79.0,45.8,29.50,North,0,0.0,0.0,31,0.00,,---,0.00,VWS V13.01,2013-08-28 20:49:00,
2013-08-28 16:54:00,78.8,45.6,29.50,North,0,0.0,0.0,31,0.00,,---,0.00,VWS V13.01,2013-08-28 20:54:00,
2013-08-28 16:59:00,78.8,45.6,29.50,North,0,0.0,0.0,31,0.00,,---,0.00,VWS V13.01,2013-08-28 20:59:00,
2013-08-28 17:04:00,79.0,46.6,29.50,North,0,0.0,0.0,32,0.00,,---,0.00,VWS V13.01,2013-08-28 21:04:00,
2013-08-28 17:09:00,79.2,46.8,29.50,North,0,0.0,0.0,32,0.00,,---,0.00,VWS V13.01,2013-08-28 21:09:00,
2013-08-28 17:14:00,79.2,46.8,29.50,North,0,0.0,0.0,32,0.00,,---,0.00,VWS V13.01,2013-08-28 21:14:00,
2013-08-28 17:19:00,79.3,47.0,29.50,North,0,0.0,0.0,32,0.00,,---,0.00,VWS V13.01,2013-08-28 21:19:00,
2013-08-28 17:24:00,79.3,47.0,29.50,North,0,0.0,0.0,32,0.00,,---,0.00,VWS V13.01,2013-08-28 21:24:00,
2013-08-28 17:29:00,78.4,47.0,29.50,North,0,0.0,0.0,33,0.00,,---,0.00,VWS V13.01,2013-08-28 21:29:00,
2013-08-28 17:34:00,78.4,47.8,29.50,North,0,0.0,0.0,34,0.00,,---,0.00,VWS V13.01,2013-08-28 21:34:00,
2013-08-28 17:39:00,78.3,48.4,29.50,North,0,0.0,0.0,35,0.00,,---,0.00,VWS V13.01,2013-08-28 21:39:00,
2013-08-28 17:44:00,77.9,48.8,29.50,North,0,0.0,0.0,36,0.00,,---,0.00,VWS V13.01,2013-08-28 21:44:00,
2013-08-28 17:49:00,77.2,49.6,29.50,North,0,0.0,0.0,38,0.00,,---,0.00,VWS V13.01,2013-08-28 21:49:00,
2013-08-28 17:54:00,77.0,50.2,29.50,North,0,0.0,0.0,39,0.00,,---,0.00,VWS V13.01,2013-08-28 21:54:00,
2013-08-28 17:59:00,76.1,51.4,29.50,North,0,0.0,0.0,42,0.00,,---,0.00,VWS V13.01,2013-08-28 21:59:00,
2013-08-28 18:04:00,76.3,51.5,29.50,North,0,0.0,0.0,42,0.00,,---,0.00,VWS V13.01,2013-08-28 22:04:00,
2013-08-28 18:09:00,76.5,51.7,29.50,North,0,0.0,0.0,42,0.00,,---,0.00,VWS V13.01,2013-08-28 22:09:00,
2013-08-28 18:14:00,76.3,51.5,29.50,North,0,0.0,0.0,42,0.00,,---,0.00,VWS V13.01,2013-08-28 22:14:00,
2013-08-28 18:19:00,76.1,52.0,29.50,North,0,0.0,0.0,43,0.00,,---,0.00,VWS V13.01,2013-08-28 22:19:00,
2013-08-28 18:24:00,75.9,51.8,29.50,North,0,0.0,0.0,43,0.00,,---,0.00,VWS V13.01,2013-08-28 22:24:00,
2013-08-28 18:29:00,75.7,52.3,29.53,North,0,0.0,0.0,44,0.00,,---,0.00,VWS V13.01,2013-08-28 22:29:00,
2013-08-28 18:34:00,75.6,52.8,29.53,North,0,0.0,0.0,45,0.00,,---,0.00,VWS V13.01,2013-08-28 22:34:00,
2013-08-28 18:39:00,75.7,52.9,29.53,North,0,0.0,0.0,45,0.00,,---,0.00,VWS V13.01,2013-08-28 22:39:00,
2013-08-28 18:44:00,75.7,52.9,29.53,North,0,0.0,0.0,45,0.00,,---,0.00,VWS V13.01,2013-08-28 22:44:00,
2013-08-28 18:49:00,75.6,53.3,29.53,North,0,0.0,0.0,46,0.00,,---,0.00,VWS V13.01,2013-08-28 22:49:00,
2013-08-28 18:59:00,75.7,53.5,29.53,North,0,0.0,0.0,46,0.00,,---,0.00,VWS V13.01,2013-08-28 22:59:00,
2013-08-28 19:04:00,75.7,52.9,29.53,North,0,0.0,0.0,45,0.00,,---,0.00,VWS V13.01,2013-08-28 23:04:00,
2013-08-28 19:14:00,75.7,52.9,29.53,North,0,0.0,0.0,45,0.00,,---,0.00,VWS V13.01,2013-08-28 23:14:00,
2013-08-28 19:19:00,75.7,52.9,29.53,North,0,0.0,0.0,45,0.00,,---,0.00,VWS V13.01,2013-08-28 23:19:00,
2013-08-28 19:24:00,75.6,52.8,29.53,North,0,0.0,0.0,45,0.00,,---,0.00,VWS V13.01,2013-08-28 23:24:00,
2013-08-28 19:29:00,75.6,53.3,29.50,North,0,0.0,0.0,46,0.00,,---,0.00,VWS V13.01,2013-08-28 23:29:00,
2013-08-28 19:34:00,75.2,53.0,29.50,North,0,0.0,0.0,46,0.00,,---,0.00,VWS V13.01,2013-08-28 23:34:00,
2013-08-28 19:39:00,74.8,53.3,29.50,North,0,0.0,0.0,47,0.00,,---,0.00,VWS V13.01,2013-08-28 23:39:00,
2013-08-28 19:44:00,74.7,53.7,29.53,North,0,0.0,0.0,48,0.00,,---,0.00,VWS V13.01,2013-08-28 23:44:00,
2013-08-28 19:49:00,74.1,56.4,29.53,North,0,0.0,0.0,54,0.00,,---,0.00,VWS V13.01,2013-08-28 23:49:00,
2013-08-28 19:54:00,73.8,58.1,29.53,North,0,0.0,0.0,58,0.00,,---,0.00,VWS V13.01,2013-08-28 23:54:00,
2013-08-28 19:59:00,73.6,58.4,29.53,North,0,0.0,0.0,59,0.00,,---,0.00,VWS V13.01,2013-08-28 23:59:00,
2013-08-28 20:04:00,73.6,57.9,29.53,North,0,0.0,0.0,58,0.00,,---,0.00,VWS V13.01,2013-08-29 00:04:00,
2013-08-28 20:09:00,73.6,57.4,29.53,North,0,0.0,0.0,57,0.00,,---,0.00,VWS V13.01,2013-08-29 00:09:00,
2013-08-28 20:14:00,73.8,57.6,29.53,North,0,0.0,0.0,57,0.00,,---,0.00,VWS V13.01,2013-08-29 00:14:00,
2013-08-28 20:19:00,73.6,57.4,29.53,North,0,0.0,0.0,57,0.00,,---,0.00,VWS V13.01,2013-08-29 00:19:00,
2013-08-28 20:24:00,73.6,57.4,29.53,North,0,0.0,0.0,57,0.00,,---,0.00,VWS V13.01,2013-08-29 00:24:00,
2013-08-28 20:29:00,73.6,56.9,29.53,North,0,0.0,0.0,56,0.00,,---,0.00,VWS V13.01,2013-08-29 00:29:00,
2013-08-28 20:34:00,73.4,56.8,29.53,North,0,0.0,0.0,56,0.00,,---,0.00,VWS V13.01,2013-08-29 00:34:00,
2013-08-28 20:39:00,73.4,57.3,29.53,North,0,0.0,0.0,57,0.00,,---,0.00,VWS V13.01,2013-08-29 00:39:00,
2013-08-28 20:44:00,73.0,58.8,29.53,North,0,0.0,0.0,61,0.00,,---,0.00,VWS V13.01,2013-08-29 00:44:00,
2013-08-28 20:49:00,72.9,59.1,29.53,North,0,0.0,0.0,62,0.00,,---,0.00,VWS V13.01,2013-08-29 00:49:00,
2013-08-28 20:54:00,72.7,60.2,29.53,North,0,0.0,0.0,65,0.00,,---,0.00,VWS V13.01,2013-08-29 00:54:00,
2013-08-28 20:59:00,72.7,60.2,29.56,North,0,0.0,0.0,65,0.00,,---,0.00,VWS V13.01,2013-08-29 00:59:00,
2013-08-28 21:04:00,72.7,60.2,29.56,North,0,0.0,0.0,65,0.00,,---,0.00,VWS V13.01,2013-08-29 01:04:00,
2013-08-28 21:09:00,72.3,60.3,29.56,North,0,0.0,0.0,66,0.00,,---,0.00,VWS V13.01,2013-08-29 01:09:00,
2013-08-28 21:14:00,72.3,60.8,29.56,North,0,0.0,0.0,67,0.00,,---,0.00,VWS V13.01,2013-08-29 01:14:00,
2013-08-28 21:19:00,72.1,61.0,29.56,North,0,0.0,0.0,68,0.00,,---,0.00,VWS V13.01,2013-08-29 01:19:00,
2013-08-28 21:24:00,72.0,61.2,29.56,North,0,0.0,0.0,69,0.00,,---,0.00,VWS V13.01,2013-08-29 01:24:00,
2013-08-28 21:29:00,72.1,61.4,29.56,North,0,0.0,0.0,69,0.00,,---,0.00,VWS V13.01,2013-08-29 01:29:00,
2013-08-28 21:39:00,72.0,61.2,29.56,North,0,0.0,0.0,69,0.00,,---,0.00,VWS V13.01,2013-08-29 01:39:00,
2013-08-28 21:44:00,72.0,61.2,29.56,North,0,0.0,0.0,69,0.00,,---,0.00,VWS V13.01,2013-08-29 01:44:00,
2013-08-28 21:49:00,72.0,61.2,29.56,North,0,0.0,0.0,69,0.00,,---,0.00,VWS V13.01,2013-08-29 01:49:00,
2013-08-28 21:54:00,72.0,60.8,29.56,North,0,0.0,0.0,68,0.00,,---,0.00,VWS V13.01,2013-08-29 01:54:00,
2013-08-28 21:59:00,72.0,61.2,29.56,North,0,0.0,0.0,69,0.00,,---,0.00,VWS V13.01,2013-08-29 01:59:00,
2013-08-28 22:04:00,72.0,60.8,29.56,North,0,0.0,0.0,68,0.00,,---,0.00,VWS V13.01,2013-08-29 02:04:00,
2013-08-28 22:09:00,71.6,61.3,29.56,North,0,0.0,0.0,70,0.00,,---,0.00,VWS V13.01,2013-08-29 02:09:00,
2013-08-28 22:14:00,71.4,61.9,29.56,North,0,0.0,0.0,72,0.00,,---,0.00,VWS V13.01,2013-08-29 02:14:00,
2013-08-28 22:19:00,71.4,61.9,29.56,North,0,0.0,0.0,72,0.00,,---,0.00,VWS V13.01,2013-08-29 02:19:00,
2013-08-28 22:24:00,71.4,61.9,29.56,North,0,0.0,0.0,72,0.00,,---,0.00,VWS V13.01,2013-08-29 02:24:00,
2013-08-28 22:34:00,71.4,61.9,29.56,North,0,0.0,0.0,72,0.00,,---,0.00,VWS V13.01,2013-08-29 02:34:00,
2013-08-28 22:39:00,71.4,61.9,29.56,North,0,0.0,0.0,72,0.00,,---,0.00,VWS V13.01,2013-08-29 02:39:00,
2013-08-28 22:44:00,71.2,61.4,29.56,North,0,0.0,0.0,71,0.00,,---,0.00,VWS V13.01,2013-08-29 02:44:00,
2013-08-28 22:54:00,70.9,60.6,29.56,North,0,0.0,0.0,70,0.00,,---,0.00,VWS V13.01,2013-08-29 02:54:00,
2013-08-28 22:59:00,70.9,60.6,29.56,North,0,0.0,0.0,70,0.00,,---,0.00,VWS V13.01,2013-08-29 02:59:00,
2013-08-28 23:04:00,70.9,61.0,29.56,North,0,0.0,0.0,71,0.00,,---,0.00,VWS V13.01,2013-08-29 03:04:00,
2013-08-28 23:09:00,70.7,60.5,29.56,North,0,0.0,0.0,70,0.00,,---,0.00,VWS V13.01,2013-08-29 03:09:00,
2013-08-28 23:14:00,70.5,60.3,29.56,North,0,0.0,0.0,70,0.00,,---,0.00,VWS V13.01,2013-08-29 03:14:00,
2013-08-28 23:19:00,70.5,60.3,29.56,North,0,0.0,0.0,70,0.00,,---,0.00,VWS V13.01,2013-08-29 03:19:00,
2013-08-28 23:24:00,70.5,60.3,29.56,North,0,0.0,0.0,70,0.00,,---,0.00,VWS V13.01,2013-08-29 03:24:00,
2013-08-28 23:29:00,70.3,60.1,29.56,North,0,0.0,0.0,70,0.00,,---,0.00,VWS V13.01,2013-08-29 03:29:00,
2013-08-28 23:34:00,70.0,58.5,29.56,North,0,0.0,0.0,67,0.00,,---,0.00,VWS V13.01,2013-08-29 03:34:00,
2013-08-28 23:39:00,69.6,59.8,29.56,North,0,0.0,0.0,71,0.00,,---,0.00,VWS V13.01,2013-08-29 03:39:00,
2013-08-28 23:44:00,69.3,60.2,29.56,North,0,0.0,0.0,73,0.00,,---,0.00,VWS V13.01,2013-08-29 03:44:00,
2013-08-28 23:49:00,69.3,60.6,29.56,North,0,0.0,0.0,74,0.00,,---,0.00,VWS V13.01,2013-08-29 03:49:00,
2013-08-28 23:54:00,69.3,60.6,29.56,North,0,0.0,0.0,74,0.00,,---,0.00,VWS V13.01,2013-08-29 03:54:00,
2013-08-28 23:59:00,69.1,59.7,29.56,North,0,0.0,0.0,72,0.00,,---,0.00,VWS V13.01,2013-08-29 03:59:00,